createdAt,value
2023-03-12T00:00:52.578Z,101185.13
2023-03-12T00:03:19.039Z,101180.84
2023-03-12T00:05:45.610Z,101180.84
2023-03-12T00:08:12.851Z,101174.88
2023-03-12T00:10:40.776Z,101172.31
2023-03-12T00:13:08.362Z,101173.16
2023-03-12T00:15:39.369Z,101168.00
2023-03-12T00:18:06.015Z,101161.19
2023-03-12T00:20:32.950Z,101167.13
2023-03-12T00:22:59.454Z,101167.97
2023-03-12T00:25:25.893Z,101167.91
2023-03-12T00:27:52.289Z,101159.38
2023-03-12T00:30:18.897Z,101149.97
2023-03-12T00:32:45.459Z,101151.69
2023-03-12T00:35:11.948Z,101152.50
2023-03-12T00:37:38.618Z,101155.88
2023-03-12T00:40:06.347Z,101152.41
2023-03-12T00:42:32.777Z,101150.69
2023-03-12T00:44:59.307Z,101157.50
2023-03-12T00:47:25.779Z,101154.06
2023-03-12T00:49:52.196Z,101150.56
2023-03-12T00:52:18.658Z,101148.84
2023-03-12T00:54:45.130Z,101145.41
2023-03-12T00:57:11.613Z,101146.28
2023-03-12T00:59:40.383Z,101147.97
2023-03-12T01:02:08.149Z,101146.25
2023-03-12T01:04:34.674Z,101136.81
2023-03-12T01:07:01.208Z,101134.28
2023-03-12T01:09:27.611Z,101129.19
2023-03-12T01:11:54.021Z,101115.56
2023-03-12T01:14:20.459Z,101104.50
2023-03-12T01:16:46.969Z,101102.81
2023-03-12T01:19:13.547Z,101105.34
2023-03-12T01:21:39.951Z,101107.88
2023-03-12T01:24:07.073Z,101104.41
2023-03-12T01:26:33.694Z,101108.66
2023-03-12T01:29:00.140Z,101104.34
2023-03-12T01:31:26.734Z,101112.91
2023-03-12T01:33:53.800Z,101111.97
2023-03-12T01:36:26.880Z,101113.63
2023-03-12T01:38:55.611Z,101113.56
2023-03-12T01:41:23.762Z,101113.53
2023-03-12T01:43:50.802Z,101106.66
2023-03-12T01:46:33.871Z,101103.22
2023-03-12T01:49:24.245Z,101101.53
2023-03-12T01:52:00.078Z,101100.69
2023-03-12T01:54:32.514Z,101101.53
2023-03-12T01:57:00.493Z,101092.94
2023-03-12T01:59:39.084Z,101081.84
2023-03-12T02:02:06.799Z,101084.41
2023-03-12T02:04:34.179Z,101085.19
2023-03-12T02:07:16.122Z,101084.25
2023-03-12T02:09:48.649Z,101079.09
2023-03-12T02:12:16.663Z,101079.09
2023-03-12T02:14:45.765Z,101067.16
2023-03-12T02:17:12.403Z,101067.16
2023-03-12T02:20:02.035Z,101053.44
2023-03-12T02:22:30.014Z,101058.56
2023-03-12T02:25:24.693Z,101053.38
2023-03-12T02:27:51.910Z,101049.91
2023-03-12T02:30:19.402Z,101050.78
2023-03-12T02:32:48.566Z,101053.41
2023-03-12T02:35:16.763Z,101035.41
2023-03-12T02:37:51.560Z,101036.25
2023-03-12T02:40:43.870Z,101037.00
2023-03-12T02:43:11.290Z,101037.00
2023-03-12T02:45:38.964Z,101027.50
2023-03-12T02:48:08.856Z,101030.91
2023-03-12T02:50:35.289Z,101031.69
2023-03-12T02:53:01.662Z,101023.94
2023-03-12T02:55:28.074Z,101011.91
2023-03-12T02:57:54.526Z,101012.69
2023-03-12T03:00:21.289Z,101008.38
2023-03-12T03:02:47.702Z,100998.16
2023-03-12T03:05:14.149Z,100993.97
2023-03-12T03:07:40.586Z,100992.28
2023-03-12T03:10:07.454Z,100985.50
2023-03-12T03:12:35.530Z,100980.44
2023-03-12T03:15:02.352Z,100983.84
2023-03-12T03:17:28.833Z,100987.25
2023-03-12T03:19:55.481Z,100983.81
2023-03-12T03:22:22.782Z,100983.81
2023-03-12T03:24:49.804Z,100982.94
2023-03-12T03:27:16.542Z,100982.09
2023-03-12T03:29:45.512Z,100977.78
2023-03-12T03:32:12.356Z,100957.34
2023-03-12T03:34:39.495Z,100956.53
2023-03-12T03:37:05.967Z,100956.56
2023-03-12T03:39:32.847Z,100950.59
2023-03-12T03:41:59.242Z,100954.91
2023-03-12T03:44:25.950Z,100942.03
2023-03-12T03:46:53.510Z,100937.78
2023-03-12T03:49:20.244Z,100935.22
2023-03-12T03:51:46.902Z,100930.91
2023-03-12T03:54:13.421Z,100924.03
2023-03-12T03:56:41.087Z,100920.59
2023-03-12T03:59:07.811Z,100912.84
2023-03-12T04:01:34.248Z,100907.72
2023-03-12T04:04:00.740Z,100921.34
2023-03-12T04:06:27.237Z,100930.69
2023-03-12T04:08:53.641Z,100924.56
2023-03-12T04:11:21.351Z,100933.06
2023-03-12T04:13:48.837Z,100922.81
2023-03-12T04:16:15.883Z,100929.75
2023-03-12T04:18:43.130Z,100928.84
2023-03-12T04:21:12.324Z,100933.00
2023-03-12T04:23:39.559Z,100924.41
2023-03-12T04:26:06.959Z,100916.59
2023-03-12T04:28:34.401Z,100908.03
2023-03-12T04:31:06.232Z,100908.78
2023-03-12T04:33:35.751Z,100910.53
2023-03-12T04:36:02.431Z,100904.56
2023-03-12T04:38:30.007Z,100907.13
2023-03-12T04:41:02.433Z,100907.94
2023-03-12T04:43:29.676Z,100895.94
2023-03-12T04:45:56.957Z,100889.97
2023-03-12T04:48:23.625Z,100889.13
2023-03-12T04:50:50.164Z,100881.47
2023-03-12T04:53:16.647Z,100875.56
2023-03-12T04:55:43.154Z,100867.03
2023-03-12T04:58:09.540Z,100865.38
2023-03-12T05:00:36.563Z,100856.84
2023-03-12T05:03:03.150Z,100847.47
2023-03-12T05:05:29.670Z,100836.41
2023-03-12T05:07:56.043Z,100830.44
2023-03-12T05:10:22.472Z,100829.59
2023-03-12T05:12:48.840Z,100820.19
2023-03-12T05:15:17.760Z,100827.06
2023-03-12T05:17:44.780Z,100821.91
2023-03-12T05:20:12.584Z,100814.22
2023-03-12T05:22:39.770Z,100809.09
2023-03-12T05:25:06.823Z,100809.09
2023-03-12T05:27:33.382Z,100815.06
2023-03-12T05:29:59.834Z,100819.34
2023-03-12T05:32:26.466Z,100817.63
2023-03-12T05:34:53.092Z,100817.63
2023-03-12T05:37:19.502Z,100805.69
2023-03-12T05:39:48.596Z,100814.19
2023-03-12T05:42:16.183Z,100812.41
2023-03-12T05:44:42.973Z,100814.13
2023-03-12T05:47:09.534Z,100809.84
2023-03-12T05:49:35.984Z,100805.59
2023-03-12T05:52:02.407Z,100798.69
2023-03-12T05:54:29.185Z,100794.38
2023-03-12T05:56:56.337Z,100788.34
2023-03-12T05:59:22.979Z,100785.69
2023-03-12T06:01:49.511Z,100789.09
2023-03-12T06:04:16.117Z,100795.88
2023-03-12T06:06:42.517Z,100795.84
2023-03-12T06:09:08.988Z,100800.06
2023-03-12T06:11:35.435Z,100790.69
2023-03-12T06:14:01.921Z,100788.13
2023-03-12T06:16:29.706Z,100797.44
2023-03-12T06:18:58.141Z,100801.72
2023-03-12T06:21:27.576Z,100802.56
2023-03-12T06:23:54.353Z,100800.88
2023-03-12T06:26:22.182Z,100800.91
2023-03-12T06:28:50.215Z,100795.75
2023-03-12T06:31:17.898Z,100800.06
2023-03-12T06:33:44.375Z,100793.19
2023-03-12T06:36:11.561Z,100776.94
2023-03-12T06:38:38.805Z,100791.53
2023-03-12T06:41:09.191Z,100784.75
2023-03-12T06:43:37.334Z,100777.97
2023-03-12T06:46:05.195Z,100784.84
2023-03-12T06:48:36.759Z,100779.69
2023-03-12T06:51:04.713Z,100777.91
2023-03-12T06:53:31.697Z,100776.34
2023-03-12T06:55:58.638Z,100777.25
2023-03-12T06:58:25.093Z,100765.22
2023-03-12T07:00:51.984Z,100756.78
2023-03-12T07:03:18.503Z,100753.31
2023-03-12T07:05:45.933Z,100746.50
2023-03-12T07:08:13.239Z,100746.47
2023-03-12T07:10:39.794Z,100746.56
2023-03-12T07:13:06.671Z,100738.03
2023-03-12T07:15:33.383Z,100730.28
2023-03-12T07:18:01.202Z,100719.84
2023-03-12T07:20:27.659Z,100706.16
2023-03-12T07:22:54.052Z,100720.72
2023-03-12T07:25:20.499Z,100718.91
2023-03-12T07:27:47.126Z,100737.72
2023-03-12T07:30:13.694Z,100736.06
2023-03-12T07:32:41.190Z,100726.63
2023-03-12T07:35:07.892Z,100727.41
2023-03-12T07:37:34.340Z,100735.09
2023-03-12T07:40:00.906Z,100740.25
2023-03-12T07:42:27.546Z,100752.19
2023-03-12T07:44:53.978Z,100753.84
2023-03-12T07:47:23.926Z,100769.25
2023-03-12T07:49:51.142Z,100762.34
2023-03-12T07:52:19.997Z,100762.28
2023-03-12T07:54:46.647Z,100764.91
2023-03-12T07:57:13.220Z,100755.41
2023-03-12T07:59:39.808Z,100763.00
2023-03-12T08:02:06.715Z,100764.72
2023-03-12T08:04:33.367Z,100769.75
2023-03-12T08:06:59.928Z,100772.28
2023-03-12T08:09:26.430Z,100760.16
2023-03-12T08:11:53.029Z,100756.69
2023-03-12T08:14:19.549Z,100748.94
2023-03-12T08:16:46.668Z,100742.88
2023-03-12T08:19:13.149Z,100751.34
2023-03-12T08:21:39.596Z,100742.75
2023-03-12T08:24:06.451Z,100746.97
2023-03-12T08:26:32.864Z,100746.03
2023-03-12T08:29:00.355Z,100744.22
2023-03-12T08:31:29.761Z,100752.75
2023-03-12T08:33:56.188Z,100748.41
2023-03-12T08:36:22.797Z,100743.16
2023-03-12T08:38:49.347Z,100741.38
2023-03-12T08:41:15.894Z,100751.53
2023-03-12T08:43:42.454Z,100738.63
2023-03-12T08:46:11.834Z,100742.75
2023-03-12T08:48:39.827Z,100746.13
2023-03-12T08:51:07.528Z,100755.44
2023-03-12T08:53:36.070Z,100745.91
2023-03-12T08:56:03.498Z,100738.97
2023-03-12T08:58:30.576Z,100756.84
2023-03-12T09:00:57.778Z,100756.84
2023-03-12T09:03:25.137Z,100752.38
2023-03-12T09:06:01.839Z,100758.22
2023-03-12T09:08:28.240Z,100757.22
2023-03-12T09:10:54.661Z,100767.44
2023-03-12T09:13:21.088Z,100756.97
2023-03-12T09:15:47.523Z,100757.59
2023-03-12T09:18:13.944Z,100755.56
2023-03-12T09:20:42.758Z,100751.09
2023-03-12T09:23:09.220Z,100738.00
2023-03-12T09:25:35.617Z,100739.47
2023-03-12T09:28:02.563Z,100743.56
2023-03-12T09:30:30.272Z,100747.72
2023-03-12T09:32:56.896Z,100733.81
2023-03-12T09:35:23.418Z,100728.34
2023-03-12T09:37:51.309Z,100734.81
2023-03-12T09:40:23.229Z,100749.28
2023-03-12T09:42:55.457Z,100737.69
2023-03-12T09:45:26.980Z,100750.41
2023-03-12T09:48:00.099Z,100742.50
2023-03-12T09:50:31.679Z,100745.66
2023-03-12T09:53:04.600Z,100748.94
2023-03-12T09:55:40.345Z,100750.50
2023-03-12T09:58:17.909Z,100753.69
2023-03-12T10:00:46.461Z,100744.00
2023-03-12T10:04:07.076Z,100746.34
2023-03-12T10:06:41.746Z,100756.44
2023-03-12T10:09:27.965Z,100752.78
2023-03-12T10:12:12.125Z,100756.81
2023-03-12T10:14:38.530Z,100753.97
2023-03-12T10:17:26.867Z,100755.50
2023-03-12T10:20:09.446Z,100759.53
2023-03-12T10:22:54.579Z,100751.63
2023-03-12T10:25:37.410Z,100754.81
2023-03-12T10:28:25.770Z,100746.13
2023-03-12T10:30:57.229Z,100747.72
2023-03-12T10:33:30.590Z,100743.97
2023-03-12T10:35:57.034Z,100750.66
2023-03-12T10:38:29.831Z,100757.28
2023-03-12T10:40:56.395Z,100747.69
2023-03-12T10:43:23.047Z,100758.66
2023-03-12T10:46:04.623Z,100750.59
2023-03-12T10:48:31.101Z,100739.94
2023-03-12T10:51:06.897Z,100740.50
2023-03-12T10:53:48.129Z,100736.84
2023-03-12T10:56:17.635Z,100732.78
2023-03-12T10:58:45.580Z,100732.22
2023-03-12T11:01:26.089Z,100745.56
2023-03-12T11:04:07.932Z,100742.59
2023-03-12T11:06:35.695Z,100743.91
2023-03-12T11:09:22.420Z,100744.25
2023-03-12T11:11:50.420Z,100743.13
2023-03-12T11:14:21.352Z,100737.63
2023-03-12T11:16:48.760Z,100738.22
2023-03-12T11:19:30.186Z,100744.84
2023-03-12T11:22:03.123Z,100756.72
2023-03-12T11:24:29.662Z,100761.44
2023-03-12T11:27:07.804Z,100753.47
2023-03-12T11:29:40.234Z,100758.47
2023-03-12T11:32:17.280Z,100772.94
2023-03-12T11:34:49.418Z,100772.78
2023-03-12T11:37:26.422Z,100771.75
2023-03-12T11:40:09.910Z,100759.50
2023-03-12T11:42:51.918Z,100758.53
2023-03-12T11:45:43.554Z,100761.13
2023-03-12T11:48:23.204Z,100755.88
2023-03-12T11:51:14.792Z,100761.88
2023-03-12T11:53:58.676Z,100754.09
2023-03-12T11:56:33.882Z,100747.00
2023-03-12T11:59:03.258Z,100757.31
2023-03-12T12:02:07.065Z,100741.56
2023-03-12T12:05:04.524Z,100732.75
2023-03-12T12:07:51.378Z,100732.63
2023-03-12T12:10:38.914Z,100730.66
2023-03-12T12:13:22.284Z,100730.59
2023-03-12T12:16:47.226Z,100729.41
2023-03-12T12:19:31.808Z,100733.69
2023-03-12T12:22:24.272Z,100730.25
2023-03-12T12:25:15.428Z,100742.31
2023-03-12T12:28:02.442Z,100730.94
2023-03-12T12:31:05.915Z,100729.75
2023-03-12T12:34:09.580Z,100724.06
2023-03-12T12:36:36.693Z,100713.41
2023-03-12T12:39:13.257Z,100706.06
2023-03-12T12:41:47.782Z,100709.06
2023-03-12T12:44:19.164Z,100714.66
2023-03-12T12:46:55.223Z,100721.63
2023-03-12T12:49:26.866Z,100719.09
2023-03-12T12:52:03.455Z,100718.09
2023-03-12T12:54:59.183Z,100718.09
2023-03-12T12:57:42.165Z,100704.22
2023-03-12T13:00:26.202Z,100700.47
2023-03-12T13:02:55.298Z,100688.13
2023-03-12T13:05:39.893Z,100699.34
2023-03-12T13:08:08.756Z,100700.28
2023-03-12T13:10:35.168Z,100689.03
2023-03-12T13:13:11.925Z,100672.25
2023-03-12T13:15:43.594Z,100682.63
2023-03-12T13:18:22.290Z,100676.56
2023-03-12T13:20:51.359Z,100688.59
2023-03-12T13:24:06.241Z,100700.53
2023-03-12T13:27:07.942Z,100690.97
2023-03-12T13:29:36.377Z,100684.78
2023-03-12T13:32:04.288Z,100680.34
2023-03-12T13:34:42.411Z,100682.03
2023-03-12T13:37:30.151Z,100674.25
2023-03-12T13:40:01.766Z,100683.72
2023-03-12T13:42:38.162Z,100685.38
2023-03-12T13:45:26.415Z,100681.66
2023-03-12T13:47:58.441Z,100697.63
2023-03-12T13:50:25.643Z,100703.13
2023-03-12T13:53:05.921Z,100710.03
2023-03-12T13:55:37.798Z,100702.44
2023-03-12T13:58:10.294Z,100699.53
2023-03-12T14:00:41.457Z,100681.44
2023-03-12T14:03:29.163Z,100691.84
2023-03-12T14:06:00.257Z,100698.22
2023-03-12T14:08:45.584Z,100690.94
2023-03-12T14:11:37.963Z,100692.81
2023-03-12T14:14:16.372Z,100699.75
2023-03-12T14:16:51.219Z,100707.69
2023-03-12T14:19:23.326Z,100710.16
2023-03-12T14:21:51.409Z,100701.78
2023-03-12T14:24:39.333Z,100710.16
2023-03-12T14:27:12.471Z,100716.31
2023-03-12T14:29:42.920Z,100728.81
2023-03-12T14:32:20.515Z,100732.38
2023-03-12T14:34:53.792Z,100735.56
2023-03-12T14:37:23.990Z,100741.22
2023-03-12T14:40:02.450Z,100747.06
2023-03-12T14:42:32.311Z,100736.97
2023-03-12T14:45:00.156Z,100726.22
2023-03-12T14:47:27.086Z,100727.75
2023-03-12T14:49:56.360Z,100730.16
2023-03-12T14:52:25.970Z,100735.13
2023-03-12T14:54:58.844Z,100735.81
2023-03-12T14:57:25.805Z,100736.72
2023-03-12T14:59:59.987Z,100741.25
2023-03-12T15:02:30.232Z,100741.91
2023-03-12T15:04:59.486Z,100723.94
2023-03-12T15:07:30.856Z,100731.59
2023-03-12T15:09:57.630Z,100732.34
2023-03-12T15:12:26.762Z,100753.16
2023-03-12T15:15:01.393Z,100743.81
2023-03-12T15:17:30.709Z,100737.09
2023-03-12T15:19:57.435Z,100737.59
2023-03-12T15:22:27.758Z,100730.88
2023-03-12T15:24:54.305Z,100727.56
2023-03-12T15:27:29.594Z,100731.84
2023-03-12T15:29:58.299Z,100722.38
2023-03-12T15:32:26.392Z,100717.31
2023-03-12T15:34:54.542Z,100722.28
2023-03-12T15:37:32.674Z,100713.63
2023-03-12T15:40:02.288Z,100715.31
2023-03-12T15:42:29.304Z,100711.78
2023-03-12T15:45:03.189Z,100712.47
2023-03-12T15:47:33.245Z,100714.19
2023-03-12T15:50:03.633Z,100708.28
2023-03-12T15:52:34.057Z,100696.28
2023-03-12T15:55:10.239Z,100700.72
2023-03-12T15:57:49.255Z,100701.13
2023-03-12T16:00:27.370Z,100705.56
2023-03-12T16:02:58.990Z,100710.00
2023-03-12T16:05:29.569Z,100711.75
2023-03-12T16:07:56.109Z,100714.59
2023-03-12T16:10:25.555Z,100702.44
2023-03-12T16:12:57.296Z,100707.72
2023-03-12T16:15:30.398Z,100694.69
2023-03-12T16:17:56.891Z,100693.94
2023-03-12T16:20:23.360Z,100689.75
2023-03-12T16:22:49.850Z,100682.94
2023-03-12T16:25:16.348Z,100687.34
2023-03-12T16:27:55.101Z,100687.28
2023-03-12T16:30:30.867Z,100693.56
2023-03-12T16:33:00.350Z,100693.63
2023-03-12T16:35:28.285Z,100700.59
2023-03-12T16:37:55.768Z,100698.06
2023-03-12T16:40:32.984Z,100693.03
2023-03-12T16:43:05.789Z,100688.81
2023-03-12T16:45:35.982Z,100684.53
2023-03-12T16:48:05.666Z,100678.59
2023-03-12T16:50:32.326Z,100681.25
2023-03-12T16:52:58.785Z,100683.09
2023-03-12T16:55:30.231Z,100679.72
2023-03-12T16:58:00.303Z,100679.13
2023-03-12T17:00:33.166Z,100693.03
2023-03-12T17:02:59.925Z,100694.88
2023-03-12T17:05:28.768Z,100692.28
2023-03-12T17:07:55.960Z,100693.34
2023-03-12T17:10:23.616Z,100689.06
2023-03-12T17:12:50.770Z,100708.16
2023-03-12T17:15:21.162Z,100712.53
2023-03-12T17:17:49.507Z,100708.34
2023-03-12T17:20:18.914Z,100706.66
2023-03-12T17:22:45.539Z,100717.25
2023-03-12T17:25:33.537Z,100717.25
2023-03-12T17:28:00.376Z,100708.63
2023-03-12T17:30:28.527Z,100706.19
2023-03-12T17:33:05.078Z,100695.88
2023-03-12T17:35:31.937Z,100696.03
2023-03-12T17:37:59.050Z,100708.25
2023-03-12T17:40:25.704Z,100708.41
2023-03-12T17:42:52.411Z,100711.94
2023-03-12T17:45:20.794Z,100718.19
2023-03-12T17:47:47.290Z,100722.63
2023-03-12T17:50:14.081Z,100728.81
2023-03-12T17:52:40.608Z,100725.44
2023-03-12T17:55:10.499Z,100727.94
2023-03-12T17:57:38.263Z,100732.38
2023-03-12T18:00:10.875Z,100727.09
2023-03-12T18:02:37.382Z,100723.63
2023-03-12T18:05:04.036Z,100719.38
2023-03-12T18:07:30.557Z,100723.81
2023-03-12T18:09:56.956Z,100728.16
2023-03-12T18:12:23.389Z,100716.00
2023-03-12T18:14:49.832Z,100720.38
2023-03-12T18:17:16.296Z,100716.94
2023-03-12T18:19:42.800Z,100717.84
2023-03-12T18:22:12.071Z,100716.00
2023-03-12T18:24:38.455Z,100716.88
2023-03-12T18:27:04.854Z,100728.94
2023-03-12T18:29:31.234Z,100728.81
2023-03-12T18:31:57.653Z,100727.03
2023-03-12T18:34:24.192Z,100727.94
2023-03-12T18:36:50.733Z,100708.91
2023-03-12T18:39:17.112Z,100721.91
2023-03-12T18:41:43.602Z,100720.09
2023-03-12T18:44:10.155Z,100726.13
2023-03-12T18:46:36.580Z,100705.44
2023-03-12T18:49:04.738Z,100712.34
2023-03-12T18:51:31.207Z,100709.75
2023-03-12T18:53:57.651Z,100727.94
2023-03-12T18:56:24.105Z,100709.75
2023-03-12T18:58:50.711Z,100714.06
2023-03-12T19:01:17.228Z,100697.63
2023-03-12T19:03:43.662Z,100708.84
2023-03-12T19:06:15.516Z,100704.56
2023-03-12T19:08:42.883Z,100702.06
2023-03-12T19:11:15.506Z,100700.44
2023-03-12T19:13:42.422Z,100719.47
2023-03-12T19:16:11.090Z,100709.09
2023-03-12T19:18:38.816Z,100693.50
2023-03-12T19:21:07.755Z,100706.50
2023-03-12T19:23:35.547Z,100681.41
2023-03-12T19:26:02.055Z,100693.56
2023-03-12T19:28:28.542Z,100681.47
2023-03-12T19:31:02.841Z,100675.44
2023-03-12T19:33:29.574Z,100686.59
2023-03-12T19:35:57.054Z,100685.59
2023-03-12T19:38:23.892Z,100677.81
2023-03-12T19:40:55.443Z,100682.19
2023-03-12T19:43:22.814Z,100675.16
2023-03-12T19:45:49.516Z,100677.75
2023-03-12T19:48:15.986Z,100675.97
2023-03-12T19:50:45.033Z,100675.84
2023-03-12T19:53:12.135Z,100675.84
2023-03-12T19:55:39.181Z,100671.50
2023-03-12T19:58:05.585Z,100664.69
2023-03-12T20:00:32.361Z,100672.56
2023-03-12T20:02:59.551Z,100665.69
2023-03-12T20:05:26.107Z,100670.03
2023-03-12T20:07:52.588Z,100659.72
2023-03-12T20:10:19.009Z,100655.50
2023-03-12T20:12:46.789Z,100660.78
2023-03-12T20:15:13.299Z,100652.22
2023-03-12T20:17:39.752Z,100653.13
2023-03-12T20:20:07.965Z,100644.56
2023-03-12T20:22:36.251Z,100638.47
2023-03-12T20:25:05.357Z,100625.56
2023-03-12T20:27:33.978Z,100627.38
2023-03-12T20:30:00.464Z,100621.44
2023-03-12T20:32:27.009Z,100608.59
2023-03-12T20:34:53.435Z,100609.56
2023-03-12T20:37:19.885Z,100610.50
2023-03-12T20:39:46.374Z,100606.16
2023-03-12T20:42:12.801Z,100608.81
2023-03-12T20:44:39.429Z,100608.75
2023-03-12T20:47:05.897Z,100597.53
2023-03-12T20:49:32.417Z,100592.41
2023-03-12T20:51:59.002Z,100595.81
2023-03-12T20:54:25.875Z,100583.72
2023-03-12T20:56:52.310Z,100593.22
2023-03-12T20:59:18.900Z,100581.94
2023-03-12T21:01:45.353Z,100586.13
2023-03-12T21:04:11.810Z,100576.59
2023-03-12T21:06:38.291Z,100580.81
2023-03-12T21:09:04.838Z,100576.50
2023-03-12T21:11:31.360Z,100573.03
2023-03-12T21:13:57.890Z,100572.09
2023-03-12T21:16:24.384Z,100570.31
2023-03-12T21:18:55.465Z,100564.28
2023-03-12T21:21:21.877Z,100559.94
2023-03-12T21:23:48.373Z,100546.13
2023-03-12T21:26:14.803Z,100540.84
2023-03-12T21:28:41.158Z,100532.28
2023-03-12T21:31:10.535Z,100529.69
2023-03-12T21:33:37.165Z,100537.56
2023-03-12T21:36:08.720Z,100531.47
2023-03-12T21:38:36.352Z,100523.81
2023-03-12T21:41:11.857Z,100515.19
2023-03-12T21:43:39.052Z,100510.13
2023-03-12T21:46:10.829Z,100502.34
2023-03-12T21:48:38.328Z,100492.06
2023-03-12T21:51:10.137Z,100487.00
2023-03-12T21:53:37.311Z,100481.16
2023-03-12T21:56:05.503Z,100473.34
2023-03-12T21:58:33.142Z,100470.91
2023-03-12T22:01:06.648Z,100459.69
2023-03-12T22:03:33.624Z,100458.09
2023-03-12T22:06:00.133Z,100455.63
2023-03-12T22:08:26.897Z,100445.34
2023-03-12T22:10:53.511Z,100436.88
2023-03-12T22:13:20.029Z,100431.81
2023-03-12T22:16:08.057Z,100430.09
2023-03-12T22:18:41.198Z,100414.50
2023-03-12T22:21:07.831Z,100419.69
2023-03-12T22:23:36.439Z,100421.44
2023-03-12T22:26:07.109Z,100416.25
2023-03-12T22:28:33.943Z,100407.63
2023-03-12T22:31:02.858Z,100415.47
2023-03-12T22:33:29.755Z,100398.19
2023-03-12T22:35:57.728Z,100402.38
2023-03-12T22:38:24.924Z,100404.97
2023-03-12T22:40:53.173Z,100386.72
2023-03-12T22:43:21.438Z,100383.38
2023-03-12T22:45:47.879Z,100380.75
2023-03-12T22:48:14.314Z,100384.34
2023-03-12T22:50:40.744Z,100380.91
2023-03-12T22:53:07.229Z,100386.16
2023-03-12T22:55:33.957Z,100372.34
2023-03-12T22:58:00.454Z,100374.97
2023-03-12T23:00:26.896Z,100370.69
2023-03-12T23:02:53.664Z,100365.50
2023-03-12T23:05:20.312Z,100371.69
2023-03-12T23:07:46.886Z,100361.38
2023-03-12T23:10:13.391Z,100357.97
2023-03-12T23:12:39.858Z,100349.25
2023-03-12T23:15:06.732Z,100349.25
2023-03-12T23:17:33.245Z,100349.25
2023-03-12T23:19:59.697Z,100334.69
2023-03-12T23:22:26.090Z,100321.78
2023-03-12T23:24:53.138Z,100320.19
2023-03-12T23:27:19.617Z,100311.56
2023-03-12T23:29:46.034Z,100309.94
2023-03-12T23:32:12.879Z,100297.91
2023-03-12T23:34:39.314Z,100282.53
2023-03-12T23:37:06.139Z,100277.47
2023-03-12T23:39:35.369Z,100273.22
2023-03-12T23:42:05.884Z,100264.69
2023-03-12T23:44:32.484Z,100246.59
2023-03-12T23:46:58.906Z,100241.41
2023-03-12T23:49:25.477Z,100232.78
2023-03-12T23:51:51.893Z,100224.13
2023-03-12T23:54:18.403Z,100217.22
2023-03-12T23:56:44.806Z,100209.50
2023-03-12T23:59:11.208Z,100211.16
